ESSA Airport Information

Runway Information
Runway 01L Length 10830 ft width 148 ft
Elevation 98 ft Threshold 0 ft Heading 10
Runway 19R Length 10830 ft Width 148 ft
Elevation 118 ft Threshold 0 ft Heading 190
Runway 01R Length 8201 ft width 148 ft
Elevation 137 ft Threshold 0 ft Heading 10
Runway 19L Length 8201 ft Width 148 ft
Elevation 98 ft Threshold 0 ft Heading 190
Runway 08 Length 8202 ft width 148 ft
Elevation 108 ft Threshold 0 ft Heading 76
Runway 26 Length 8202 ft Width 148 ft
Elevation 124 ft Threshold 0 ft Heading 256
Airport Frequencies
Type APP Name STOCKHOLM Frequency 123.75 MHZ
Type ATIS Name ATIS Frequency 119 MHZ
Type CLD Name CLNC DEL Frequency 121.825 MHZ
Type GND Name GND Frequency 121.7 MHZ
Type PMSV Name MET OFFICE Frequency 122.6 MHZ
Type TWR Name TWR Frequency 118.5 MHZ
Airport Navaids
Type VOR-DME Name Arlanda Frequency 116000 KHZ
Type NDB Name Arlanda Frequency 352 KHZ
Type NDB Name Arlanda Frequency 360 KHZ
Type NDB Name Arlanda Frequency 404 KHZ
Type NDB Name Arlanda Frequency 370 KHZ
Airport Weather Information & NOTAM
Deprecated: The each() function is deprecated. This message will be suppressed on further calls in /storage/content/79/1005879/virtualnac.org/public_html/v2/lib/functions.php on line 154 ADDS - METARS form results

(1201 UTC 28 November 2021)
Data provider http://aviationweather.gov/metar/data/
 
METAR text: ESSA 281150Z 02005KT 9999 FEW018 M03/M06 Q1004 NOSIG
Conditions at: ESSA (STOCKHOLM/ARLAND, SE) observed 1150 UTC 28 November 2021
Temperature: -3.0°C (27°F)
Dewpoint: -6.0°C (21°F) [RH = 80%]
Pressure (altimeter): 29.65 inches Hg (1004.0 mb)
Winds: from the NNE (20 degrees) at 6 MPH (5 knots; 2.6 m/s)
Visibility: 6 or more miles (10+ km)
Ceiling: at least 12,000 feet AGL
Clouds: few clouds at 1800 feet AGL
Weather: no significant weather observed at this time

METAR text: ESSA 281120Z 36005KT CAVOK M04/M06 Q1003 NOSIG
Conditions at: ESSA (STOCKHOLM/ARLAND, SE) observed 1120 UTC 28 November 2021
Temperature: -4.0°C (25°F)
Dewpoint: -6.0°C (21°F) [RH = 86%]
Pressure (altimeter): 29.62 inches Hg (1003.0 mb)
Winds: from the N (360 degrees) at 6 MPH (5 knots; 2.6 m/s)
Visibility: 6 or more miles (10+ km)
Ceiling: ceiling and visibility are OK
Clouds: unknown
Weather: no significant weather observed at this time

Forecast for: ESSA (STOCKHOLM/ARLAND, SE)
Text: TAF ESSA 281130Z 2812/2912 03005KT CAVOK
Forecast period: 1200 UTC 28 November 2021 to 1200 UTC 29 November 2021
Forecast type: FROM: standard forecast or significant change
Winds: from the NNE (30 degrees) at 6 MPH (5 knots; 2.6 m/s)
Visibility: 6 or more miles (10+ km)
Ceiling: unknown
Clouds: missing
Weather: NSW  (no significant weather)
Text: PROB40 2904/2909 BKN013
Forecast period: 0400 to 0900 UTC 29 November 2021
Forecast type: PROBABLE: 40 percent likelihood of the following during this time
Visibility: missing
Ceiling: 1300 feet AGL
Clouds: broken clouds at 1300 feet AGL
Weather: no significant weather forecast for this period